Time;durP1;ratioP1;P1;durP2;ratioP2;P2;SDS_P1;SDS_P2;PMS_P1;PMS_P2;Temp;Humidity;BMP_temperature;BMP_pressure;BME280_temperature;BME280_humidity;BME280_pressure;Samples;Min_cycle;Max_cycle;Signal;HPM_P1;HPM_P2
2021/11/17 02:26:59;;;;;;;12.27;8.37;;;12.70;58.30;;;;;;5004728;28;20507;-49
2021/11/17 02:29:31;;;;;;;11.73;7.20;;;12.70;58.40;;;;;;5006840;28;20535;-47
2021/11/17 02:32:35;;;;;;;10.07;8.23;;;12.60;58.20;;;;;;5003516;28;20530;-49
2021/11/17 02:35:29;;;;;;;9.40;8.40;;;12.50;58.50;;;;;;5006063;28;21152;-50
2021/11/17 02:38:16;;;;;;;10.50;8.20;;;12.50;58.60;;;;;;5008588;28;20453;-45
2021/11/17 02:40:53;;;;;;;9.27;7.40;;;12.60;58.70;;;;;;5010052;28;20448;-45
2021/11/17 02:43:54;;;;;;;12.07;8.13;;;12.60;58.60;;;;;;5012365;28;20460;-49
2021/11/17 02:46:44;;;;;;;11.90;8.90;;;12.60;58.40;;;;;;5007230;28;20441;-47
2021/11/17 02:49:54;;;;;;;13.13;7.57;;;12.60;58.40;;;;;;5007965;28;20448;-46
2021/11/17 02:52:35;;;;;;;10.97;7.83;;;12.70;58.30;;;;;;4976260;28;20442;-46
2021/11/17 02:55:22;;;;;;;13.40;9.73;;;12.70;58.30;;;;;;4956534;28;20474;-48
2021/11/17 02:57:57;;;;;;;10.17;8.10;;;12.70;58.40;;;;;;4997096;28;20510;-48
2021/11/17 03:00:31;;;;;;;14.70;8.60;;;12.60;58.40;;;;;;5010139;28;20823;-47
2021/11/17 03:03:03;;;;;;;13.60;8.80;;;12.60;58.50;;;;;;5012623;28;20448;-47
2021/11/17 03:05:41;;;;;;;10.00;8.37;;;12.60;58.60;;;;;;5009807;28;20506;-46
2021/11/17 03:08:26;;;;;;;9.93;7.70;;;12.60;58.70;;;;;;5012117;28;20484;-45
2021/11/17 03:11:22;;;;;;;10.60;8.50;;;12.70;58.80;;;;;;5013085;28;20436;-49
2021/11/17 03:14:06;;;;;;;7.87;6.00;;;12.70;59.00;;;;;;5005571;28;20486;-48
2021/11/17 03:16:44;;;;;;;7.80;7.00;;;12.60;58.90;;;;;;5003911;28;20480;-47
2021/11/17 03:19:42;;;;;;;7.33;6.43;;;12.60;59.00;;;;;;5009706;28;20500;-46
2021/11/17 03:22:30;;;;;;;10.00;7.33;;;12.60;59.30;;;;;;5008360;28;20943;-47
2021/11/17 03:25:17;;;;;;;8.87;6.87;;;12.60;59.30;;;;;;5009323;28;20567;-45
2021/11/17 03:28:01;;;;;;;11.60;7.73;;;12.70;59.30;;;;;;5007828;28;20455;-46
2021/11/17 03:30:44;;;;;;;7.40;6.20;;;12.60;59.20;;;;;;5007901;28;20449;-45
2021/11/17 03:33:44;;;;;;;8.10;7.20;;;12.70;59.20;;;;;;5011300;28;20518;-46
2021/11/17 03:36:28;;;;;;;8.00;6.50;;;12.70;59.10;;;;;;5008437;28;20544;-47
2021/11/17 03:39:12;;;;;;;16.13;12.90;;;12.70;59.00;;;;;;5005728;28;20548;-49
2021/11/17 03:41:38;;;;;;;14.37;10.00;;;12.70;59.20;;;;;;5005659;28;20437;-46
2021/11/17 03:44:22;;;;;;;12.53;9.30;;;12.60;59.40;;;;;;5012603;28;20947;-49
2021/11/17 03:47:19;;;;;;;10.00;7.73;;;12.60;59.50;;;;;;5008508;28;20255;-47
2021/11/17 03:49:59;;;;;;;10.57;7.57;;;12.60;59.50;;;;;;5007070;28;20437;-49
2021/11/17 03:53:01;;;;;;;10.67;7.33;;;12.60;59.50;;;;;;5007484;28;20876;-48
2021/11/17 03:55:51;;;;;;;14.33;7.47;;;12.60;59.60;;;;;;4940354;28;20598;-46
2021/11/17 03:58:48;;;;;;;10.60;7.83;;;12.60;59.70;;;;;;5007162;28;20960;-46
2021/11/17 04:01:46;;;;;;;10.80;7.83;;;12.60;59.70;;;;;;5009562;28;20913;-47
2021/11/17 04:04:24;;;;;;;11.07;7.37;;;12.60;59.70;;;;;;5011373;28;20572;-47
2021/11/17 04:07:00;;;;;;;11.43;7.80;;;12.60;59.60;;;;;;5008169;28;20485;-49
2021/11/17 04:09:38;;;;;;;12.03;7.50;;;12.60;59.60;;;;;;5010302;28;20476;-47
2021/11/17 04:12:22;;;;;;;9.40;6.90;;;12.60;59.60;;;;;;5008196;28;20456;-49
2021/11/17 04:15:10;;;;;;;11.30;7.70;;;12.60;59.50;;;;;;5010298;28;20947;-46
2021/11/17 04:17:47;;;;;;;10.53;7.40;;;12.60;59.50;;;;;;5014900;28;20449;-45
2021/11/17 04:20:28;;;;;;;12.30;8.23;;;12.60;59.50;;;;;;5010164;28;20445;-46
2021/11/17 04:23:10;;;;;;;12.83;7.70;;;12.60;59.50;;;;;;5010893;28;20453;-49
2021/11/17 04:26:01;;;;;;;8.57;7.17;;;12.50;59.60;;;;;;5009561;28;20907;-46
2021/11/17 04:28:51;;;;;;;8.70;6.93;;;12.50;59.50;;;;;;5009631;28;20813;-45
2021/11/17 04:31:25;;;;;;;7.50;6.50;;;12.60;59.50;;;;;;5002008;28;20904;-47
2021/11/17 04:34:39;;;;;;;10.80;7.10;;;12.60;59.30;;;;;;5010675;28;20500;-46
2021/11/17 04:37:30;;;;;;;8.07;5.73;;;12.60;59.40;;;;;;4964022;28;20461;-49
2021/11/17 04:40:22;;;;;;;8.33;6.43;;;12.60;59.30;;;;;;5004121;28;20457;-45
2021/11/17 04:43:17;;;;;;;9.00;7.00;;;12.60;59.30;;;;;;5007865;28;20456;-46
2021/11/17 04:46:25;;;;;;;8.60;6.80;;;12.60;59.10;;;;;;5009504;28;20515;-49
2021/11/17 04:48:59;;;;;;;8.20;6.13;;;12.50;59.10;;;;;;4988220;28;20449;-48
2021/11/17 04:51:44;;;;;;;7.63;6.30;;;12.50;59.20;;;;;;5007896;28;20451;-45
2021/11/17 04:54:22;;;;;;;7.60;6.77;;;12.50;59.30;;;;;;5009249;28;20449;-46
2021/11/17 04:57:05;;;;;;;10.23;6.37;;;12.40;59.50;;;;;;5010982;28;20437;-48
2021/11/17 04:59:43;;;;;;;9.13;6.77;;;12.30;59.80;;;;;;5008549;28;20457;-46
2021/11/17 05:02:29;;;;;;;10.57;7.70;;;12.40;59.90;;;;;;5005458;28;20528;-46
2021/11/17 05:05:10;;;;;;;9.20;6.10;;;12.40;59.70;;;;;;5007548;28;20515;-45
2021/11/17 05:08:13;;;;;;;8.67;6.50;;;12.30;59.50;;;;;;5004250;28;20452;-49
2021/11/17 05:10:51;;;;;;;9.00;6.60;;;12.20;59.80;;;;;;4905485;29;20469;-47
2021/11/17 05:13:44;;;;;;;9.90;7.00;;;12.30;59.80;;;;;;4999396;28;20928;-46
2021/11/17 05:16:18;;;;;;;9.17;6.63;;;12.20;60.00;;;;;;5008282;28;20453;-45
2021/11/17 05:18:58;;;;;;;11.50;6.33;;;12.10;60.70;;;;;;5008857;28;20527;-48
2021/11/17 05:21:23;;;;;;;9.13;7.07;;;12.10;61.00;;;;;;5007517;28;20967;-45
2021/11/17 05:24:07;;;;;;;9.20;6.90;;;12.00;60.90;;;;;;5009214;28;20484;-46
2021/11/17 05:26:38;;;;;;;9.43;6.47;;;12.00;61.20;;;;;;5008386;28;20560;-48
2021/11/17 05:29:12;;;;;;;9.13;6.13;;;11.90;61.60;;;;;;5007682;28;20510;-45
2021/11/17 05:32:06;;;;;;;9.00;6.43;;;11.80;61.80;;;;;;5009304;28;20448;-45
2021/11/17 05:34:44;;;;;;;10.47;5.90;;;11.90;61.90;;;;;;5004690;28;20572;-48
2021/11/17 05:37:47;;;;;;;11.87;6.00;;;12.00;61.70;;;;;;5007029;28;20444;-46
2021/11/17 05:40:45;;;;;;;10.37;5.80;;;12.00;61.60;;;;;;4934022;29;20503;-47
2021/11/17 05:43:19;;;;;;;9.37;6.20;;;12.00;61.30;;;;;;4965371;28;20532;-46
2021/11/17 05:46:12;;;;;;;8.10;6.10;;;12.00;61.20;;;;;;5007931;28;20511;-45
2021/11/17 05:48:43;;;;;;;10.47;5.70;;;12.00;61.40;;;;;;5007355;28;20449;-50
2021/11/17 05:51:27;;;;;;;12.17;6.53;;;12.10;61.30;;;;;;5005461;28;21002;-46
2021/11/17 05:53:55;;;;;;;8.47;5.90;;;12.20;61.30;;;;;;4989363;28;20460;-49
2021/11/17 05:56:26;;;;;;;8.77;6.30;;;12.20;61.10;;;;;;5004874;28;20909;-45
2021/11/17 05:59:16;;;;;;;8.87;6.47;;;12.20;61.10;;;;;;5007228;28;20509;-46
2021/11/17 06:01:51;;;;;;;11.77;7.40;;;12.20;60.90;;;;;;5003681;28;20548;-45
2021/11/17 06:04:16;;;;;;;11.27;7.47;;;12.20;60.90;;;;;;4999682;28;20497;-45
2021/11/17 06:06:41;;;;;;;8.37;5.90;;;12.20;61.00;;;;;;5000792;28;20932;-46
2021/11/17 06:09:07;;;;;;;9.73;6.80;;;12.10;61.10;;;;;;5002430;28;20614;-46
2021/11/17 06:11:47;;;;;;;12.63;6.50;;;12.10;61.20;;;;;;5005116;28;20227;-45
2021/11/17 06:14:25;;;;;;;9.33;6.20;;;12.10;61.40;;;;;;5008005;28;20268;-45
2021/11/17 06:16:58;;;;;;;10.60;6.63;;;12.10;61.80;;;;;;5009683;28;20531;-49
2021/11/17 06:19:27;;;;;;;7.83;6.30;;;12.20;61.80;;;;;;5010493;28;20987;-46
2021/11/17 06:21:53;;;;;;;11.00;6.40;;;12.30;61.90;;;;;;5006565;28;21010;-49
2021/11/17 06:24:22;;;;;;;8.20;6.13;;;12.40;61.20;;;;;;5007797;28;20490;-45
2021/11/17 06:26:49;;;;;;;8.20;6.43;;;12.40;60.80;;;;;;5008839;28;20464;-49
2021/11/17 06:29:28;;;;;;;8.50;6.00;;;12.50;60.90;;;;;;5005803;28;20447;-45
2021/11/17 06:31:55;;;;;;;10.23;6.60;;;12.40;61.60;;;;;;5004943;28;21218;-46
2021/11/17 06:34:30;;;;;;;9.40;6.70;;;12.40;60.40;;;;;;5008147;28;20437;-45
2021/11/17 06:36:58;;;;;;;7.50;5.37;;;12.40;60.40;;;;;;5008317;28;20433;-47
2021/11/17 06:39:24;;;;;;;8.00;5.70;;;12.50;60.40;;;;;;5003906;28;20429;-45
2021/11/17 06:41:51;;;;;;;9.37;6.67;;;12.40;60.20;;;;;;5008609;28;20433;-45
2021/11/17 06:44:16;;;;;;;10.00;7.03;;;12.40;60.20;;;;;;5008679;28;20484;-46
2021/11/17 06:46:42;;;;;;;9.30;6.30;;;12.50;60.10;;;;;;5009762;28;20433;-47
2021/11/17 06:49:08;;;;;;;10.07;6.73;;;12.50;60.00;;;;;;5007374;28;20198;-46
2021/11/17 06:51:33;;;;;;;10.87;6.63;;;12.60;59.90;;;;;;5008663;28;20198;-50
2021/11/17 06:54:00;;;;;;;7.43;5.87;;;12.70;60.40;;;;;;5009783;28;20616;-48
2021/11/17 06:56:27;;;;;;;10.13;6.20;;;12.80;59.50;;;;;;5007694;28;20575;-48
2021/11/17 06:58:53;;;;;;;8.93;7.10;;;12.80;59.40;;;;;;5006833;28;20432;-46
2021/11/17 07:01:19;;;;;;;11.33;7.37;;;12.80;59.40;;;;;;5006712;28;20443;-47
2021/11/17 07:03:44;;;;;;;11.23;6.47;;;12.80;59.10;;;;;;5009060;28;20226;-47
2021/11/17 07:06:10;;;;;;;15.83;8.40;;;12.80;58.90;;;;;;5009069;28;20201;-46
2021/11/17 07:08:36;;;;;;;13.33;8.27;;;12.90;58.80;;;;;;4990390;28;20236;-48
2021/11/17 07:11:02;;;;;;;10.37;8.03;;;13.00;58.80;;;;;;5008096;28;20190;-47
2021/11/17 07:13:27;;;;;;;10.00;6.20;;;13.10;58.80;;;;;;5008906;28;20531;-49
2021/11/17 07:15:53;;;;;;;8.67;6.30;;;13.10;58.20;;;;;;5008357;28;20198;-46
2021/11/17 07:18:19;;;;;;;11.87;7.27;;;13.10;57.90;;;;;;5008924;28;20206;-45
2021/11/17 07:20:46;;;;;;;11.47;6.30;;;13.10;57.60;;;;;;5005128;28;20277;-48
2021/11/17 07:23:13;;;;;;;9.60;6.87;;;13.00;57.50;;;;;;5010184;28;20444;-45
2021/11/17 07:25:39;;;;;;;10.13;6.73;;;12.80;57.90;;;;;;5007602;28;20479;-47
2021/11/17 07:28:05;;;;;;;8.93;6.80;;;12.80;58.00;;;;;;5009545;28;21738;-47
2021/11/17 07:30:35;;;;;;;10.03;6.60;;;12.70;58.10;;;;;;5010068;28;20194;-48
2021/11/17 07:33:02;;;;;;;30.63;24.53;;;12.60;58.10;;;;;;5012722;28;20498;-45
2021/11/17 07:35:30;;;;;;;19.33;15.50;;;12.40;58.20;;;;;;5010739;28;20435;-47
2021/11/17 07:38:01;;;;;;;11.43;8.13;;;12.40;58.40;;;;;;5013107;28;20547;-48
2021/11/17 07:40:31;;;;;;;10.83;7.00;;;12.40;58.60;;;;;;5011722;28;20838;-45
2021/11/17 07:42:57;;;;;;;9.20;6.37;;;12.40;58.70;;;;;;5013833;28;20433;-47
2021/11/17 07:45:24;;;;;;;9.17;6.10;;;12.40;58.60;;;;;;5013287;28;20484;-46
2021/11/17 07:47:51;;;;;;;10.50;6.67;;;12.40;58.70;;;;;;5013495;28;20490;-46
2021/11/17 07:50:18;;;;;;;8.90;6.33;;;12.30;58.90;;;;;;5013243;28;20528;-47
2021/11/17 07:52:43;;;;;;;7.80;5.33;;;12.30;58.90;;;;;;5012611;28;20919;-48
2021/11/17 07:55:12;;;;;;;8.90;6.43;;;12.30;59.10;;;;;;5013486;28;20468;-45
2021/11/17 07:57:40;;;;;;;10.57;7.03;;;12.20;59.10;;;;;;5013158;28;20202;-47
2021/11/17 08:00:27;;;;;;;10.90;6.07;;;12.30;59.00;;;;;;5013530;28;20448;-45
2021/11/17 08:02:54;;;;;;;9.80;6.43;;;12.40;58.90;;;;;;5012500;28;20428;-45
2021/11/17 08:05:21;;;;;;;11.20;6.77;;;12.40;58.80;;;;;;5012832;28;20488;-46
2021/11/17 08:07:47;;;;;;;9.30;5.43;;;12.30;58.70;;;;;;5011961;28;20936;-49
2021/11/17 08:10:17;;;;;;;8.53;6.30;;;12.30;58.70;;;;;;5013410;28;20425;-46
2021/11/17 08:12:43;;;;;;;8.23;5.90;;;12.30;59.00;;;;;;5012837;28;20433;-45
2021/11/17 08:15:10;;;;;;;11.10;6.10;;;12.30;59.60;;;;;;5012863;28;20429;-45
2021/11/17 08:17:38;;;;;;;9.47;6.27;;;12.40;59.00;;;;;;4995408;28;20817;-46
2021/11/17 08:20:05;;;;;;;10.40;5.60;;;12.40;58.70;;;;;;5011983;28;20437;-49
2021/11/17 08:22:31;;;;;;;8.00;5.93;;;12.40;58.50;;;;;;5012638;28;20429;-45
2021/11/17 08:24:56;;;;;;;9.27;5.60;;;12.50;58.40;;;;;;5011996;28;20488;-47
2021/11/17 08:27:22;;;;;;;7.47;5.50;;;12.40;58.30;;;;;;5012293;28;20452;-49
2021/11/17 08:29:51;;;;;;;9.57;6.03;;;12.30;58.50;;;;;;5013300;28;20244;-45
2021/11/17 08:32:17;;;;;;;8.80;6.10;;;12.40;58.70;;;;;;5012745;28;20190;-46
2021/11/17 08:34:43;;;;;;;9.70;7.13;;;12.40;58.70;;;;;;5012779;28;20940;-46
2021/11/17 08:37:10;;;;;;;14.37;6.23;;;12.40;58.70;;;;;;5009125;28;20470;-46
2021/11/17 08:39:36;;;;;;;7.00;5.03;;;12.50;58.70;;;;;;4997476;28;20209;-47
2021/11/17 08:42:03;;;;;;;6.63;4.63;;;12.40;59.00;;;;;;5011764;28;20436;-46
2021/11/17 08:44:28;;;;;;;6.80;4.70;;;12.30;59.00;;;;;;5011711;28;20497;-45
2021/11/17 08:46:54;;;;;;;6.50;4.70;;;12.00;59.40;;;;;;5007471;28;20474;-46
2021/11/17 08:49:21;;;;;;;4.80;3.93;;;12.00;59.80;;;;;;5012230;28;20190;-45
2021/11/17 08:51:47;;;;;;;6.17;3.90;;;12.10;59.90;;;;;;5010371;28;20429;-46
2021/11/17 08:54:13;;;;;;;4.43;3.17;;;12.00;59.90;;;;;;5010387;28;20962;-46
2021/11/17 08:56:38;;;;;;;4.07;3.00;;;12.00;60.20;;;;;;5011308;28;20441;-46
2021/11/17 08:59:05;;;;;;;4.70;3.77;;;12.00;60.30;;;;;;5013175;28;20198;-47
2021/11/17 09:01:32;;;;;;;5.33;3.87;;;12.00;60.40;;;;;;5010772;28;20252;-46
2021/11/17 09:04:06;;;;;;;4.80;3.57;;;11.90;60.40;;;;;;5011966;28;20503;-46
2021/11/17 09:06:36;;;;;;;5.00;3.30;;;11.80;60.90;;;;;;5006407;28;20479;-47
2021/11/17 09:09:06;;;;;;;6.63;4.20;;;11.70;60.70;;;;;;5006284;28;20483;-46
2021/11/17 09:11:33;;;;;;;4.30;3.23;;;11.70;60.40;;;;;;5010283;28;21030;-45
2021/11/17 09:13:59;;;;;;;6.43;4.13;;;11.80;60.70;;;;;;5009195;28;20520;-47
2021/11/17 09:16:29;;;;;;;4.77;3.90;;;11.80;61.00;;;;;;5009533;28;20899;-46
2021/11/17 09:18:59;;;;;;;4.80;3.37;;;11.80;61.00;;;;;;5021636;28;20436;-45
2021/11/17 09:21:26;;;;;;;6.60;3.47;;;11.70;61.00;;;;;;5018702;28;20453;-46
2021/11/17 09:23:51;;;;;;;9.13;3.87;;;11.80;61.10;;;;;;5011300;28;20524;-45
2021/11/17 09:26:22;;;;;;;6.40;4.20;;;11.70;61.10;;;;;;5010875;28;21019;-45
2021/11/17 09:28:49;;;;;;;6.57;4.23;;;11.80;61.20;;;;;;5007925;28;20213;-45
2021/11/17 09:31:15;;;;;;;6.73;3.90;;;11.70;61.20;;;;;;5010450;28;20491;-46
2021/11/17 09:33:43;;;;;;;3.50;2.97;;;11.60;61.40;;;;;;4993327;28;20445;-45
2021/11/17 09:36:11;;;;;;;4.43;3.30;;;11.30;61.10;;;;;;5007801;28;20437;-46
2021/11/17 09:38:38;;;;;;;6.13;2.80;;;11.00;62.10;;;;;;5011132;28;20504;-46
2021/11/17 09:41:15;;;;;;;4.00;3.03;;;11.00;62.90;;;;;;5010509;28;20483;-45
2021/11/17 09:43:51;;;;;;;4.77;3.57;;;11.10;63.00;;;;;;5007770;28;20476;-45
2021/11/17 09:46:20;;;;;;;4.17;3.30;;;11.10;62.90;;;;;;5010318;28;20437;-46
2021/11/17 09:48:49;;;;;;;8.20;5.00;;;11.30;62.40;;;;;;5010755;28;20451;-46
2021/11/17 09:51:19;;;;;;;6.30;3.40;;;11.20;62.30;;;;;;5010063;28;20491;-50
2021/11/17 09:53:58;;;;;;;9.27;5.50;;;11.20;62.00;;;;;;5010847;28;20487;-46
2021/11/17 09:56:33;;;;;;;4.70;3.50;;;11.20;61.80;;;;;;5009130;28;20432;-46
2021/11/17 09:59:09;;;;;;;4.90;3.70;;;11.20;61.60;;;;;;5006564;28;20432;-46
2021/11/17 10:01:48;;;;;;;5.80;3.17;;;11.20;61.70;;;;;;5009161;28;20528;-48
2021/11/17 10:04:17;;;;;;;5.30;4.33;;;11.20;61.30;;;;;;5007891;28;20571;-48
2021/11/17 10:15:17;;;;;;;3.97;2.87;;;11.30;61.40;;;;;;5008399;28;20955;-48
2021/11/17 10:18:38;;;;;;;3.10;2.80;;;11.20;61.20;;;;;;5009168;28;20440;-48
2021/11/17 10:21:29;;;;;;;2.53;2.33;;;11.10;60.40;;;;;;5006199;28;20980;-48
2021/11/17 10:24:07;;;;;;;4.50;2.20;;;11.00;60.20;;;;;;4998990;28;20550;-50
2021/11/17 10:26:46;;;;;;;2.87;2.33;;;11.00;60.40;;;;;;5008240;28;20511;-47
2021/11/17 10:29:26;;;;;;;3.00;2.80;;;11.00;60.40;;;;;;5014507;28;20441;-48
2021/11/17 10:31:56;;;;;;;2.60;2.40;;;10.90;60.30;;;;;;5007903;28;20490;-51
2021/11/17 10:34:32;;;;;;;3.53;2.60;;;10.90;60.50;;;;;;5002183;28;21206;-51
2021/11/17 10:37:11;;;;;;;3.40;3.10;;;11.10;60.70;;;;;;5010618;28;20483;-52
2021/11/17 10:39:37;;;;;;;2.90;2.57;;;11.30;60.60;;;;;;5015260;28;20843;-49
2021/11/17 10:42:05;;;;;;;2.60;2.40;;;11.30;60.20;;;;;;5013560;28;20436;-50
2021/11/17 10:44:39;;;;;;;2.47;2.27;;;11.20;59.90;;;;;;5016373;28;20225;-49
2021/11/17 10:47:21;;;;;;;2.13;1.93;;;11.20;59.70;;;;;;5010039;28;20443;-49
2021/11/17 10:50:04;;;;;;;4.73;1.93;;;11.10;59.00;;;;;;5010089;28;20445;-51
2021/11/17 10:52:38;;;;;;;2.40;1.53;;;11.40;59.30;;;;;;5008314;28;20447;-47
2021/11/17 10:55:29;;;;;;;2.73;1.70;;;11.50;58.70;;;;;;5008941;28;21027;-50
2021/11/17 10:57:55;;;;;;;1.53;1.40;;;11.50;57.90;;;;;;5006060;28;20502;-50
2021/11/17 11:00:28;;;;;;;2.03;1.57;;;11.50;57.70;;;;;;5009676;28;20440;-49
2021/11/17 11:02:55;;;;;;;1.67;1.10;;;11.30;57.00;;;;;;5009406;28;20433;-49
2021/11/17 11:05:26;;;;;;;1.20;1.10;;;11.20;57.50;;;;;;5010408;28;20476;-50
2021/11/17 11:08:34;;;;;;;1.50;1.07;;;11.20;57.20;;;;;;5013062;28;20436;-52
2021/11/17 11:11:04;;;;;;;1.40;1.30;;;11.30;57.10;;;;;;4988036;28;20445;-51
2021/11/17 11:13:40;;;;;;;1.40;1.30;;;11.00;57.10;;;;;;5014659;28;20444;-51
2021/11/17 11:16:15;;;;;;;2.70;1.57;;;11.00;57.20;;;;;;4999798;28;20815;-48
2021/11/17 11:18:54;;;;;;;2.17;1.50;;;11.10;57.30;;;;;;5006129;28;20432;-50
2021/11/17 11:21:42;;;;;;;1.50;1.37;;;10.90;57.00;;;;;;5012609;28;20454;-50
2021/11/17 11:24:46;;;;;;;1.83;1.73;;;11.00;57.50;;;;;;5016225;28;20841;-51
2021/11/17 11:27:16;;;;;;;2.97;2.20;;;11.20;57.10;;;;;;5015506;28;20444;-50
2021/11/17 11:30:07;;;;;;;2.13;2.03;;;11.30;56.70;;;;;;5012852;28;20482;-49
2021/11/17 11:32:33;;;;;;;2.53;2.30;;;11.30;56.70;;;;;;5010699;28;20452;-51
2021/11/17 11:34:58;;;;;;;3.00;2.17;;;11.40;56.60;;;;;;5019040;28;20858;-51
2021/11/17 11:37:24;;;;;;;2.50;2.30;;;11.50;56.50;;;;;;5012577;28;20202;-50
2021/11/17 11:39:57;;;;;;;2.70;1.83;;;11.60;56.70;;;;;;5021174;28;20378;-50
2021/11/17 11:42:30;;;;;;;1.80;1.70;;;11.80;56.60;;;;;;5016959;28;20216;-49
2021/11/17 11:45:16;;;;;;;2.30;1.60;;;11.90;56.30;;;;;;5020562;28;20487;-50
2021/11/17 11:47:51;;;;;;;1.53;1.43;;;11.80;56.00;;;;;;5013603;28;20444;-51
2021/11/17 11:50:32;;;;;;;1.80;1.60;;;11.90;56.20;;;;;;5013339;28;20448;-50
2021/11/17 11:53:16;;;;;;;2.90;1.70;;;11.60;55.90;;;;;;5005955;28;20457;-47
2021/11/17 11:55:52;;;;;;;3.93;1.60;;;11.60;56.20;;;;;;5010351;28;21929;-51
2021/11/17 11:58:26;;;;;;;2.50;2.30;;;11.60;56.00;;;;;;5008775;28;20535;-51
2021/11/17 12:01:03;;;;;;;1.97;1.60;;;11.50;56.10;;;;;;4993925;28;20437;-50
2021/11/17 12:03:34;;;;;;;1.67;1.57;;;11.60;56.30;;;;;;5011294;28;20584;-52
2021/11/17 12:06:29;;;;;;;1.73;1.57;;;11.60;56.20;;;;;;4992521;28;20524;-52
2021/11/17 12:09:07;;;;;;;1.93;1.70;;;11.60;56.30;;;;;;5001462;28;20500;-52
2021/11/17 12:11:42;;;;;;;4.00;1.70;;;11.40;56.10;;;;;;5022310;28;20440;-51
2021/11/17 12:14:11;;;;;;;1.73;1.63;;;11.50;56.10;;;;;;5012934;28;20523;-51
2021/11/17 12:16:44;;;;;;;2.83;1.93;;;11.50;56.20;;;;;;5013910;28;20437;-51
2021/11/17 12:19:30;;;;;;;1.20;1.10;;;11.40;56.00;;;;;;5012703;28;20445;-52
2021/11/17 12:22:04;;;;;;;2.80;2.00;;;11.50;55.90;;;;;;5011662;28;20437;-51
2021/11/17 12:24:39;;;;;;;2.80;1.63;;;11.80;55.80;;;;;;5012675;28;20484;-51
2021/11/17 12:27:20;;;;;;;2.20;1.57;;;11.70;55.50;;;;;;5015017;28;20440;-50
2021/11/17 12:29:51;;;;;;;1.90;1.70;;;11.60;55.20;;;;;;5010751;28;20808;-50
2021/11/17 12:32:45;;;;;;;1.53;1.40;;;11.50;55.80;;;;;;5011612;28;20970;-51
2021/11/17 12:35:16;;;;;;;1.30;1.20;;;11.50;55.70;;;;;;5005553;28;20810;-51
2021/11/17 12:37:47;;;;;;;1.27;1.17;;;11.50;55.90;;;;;;5011520;28;20601;-47
2021/11/17 12:40:17;;;;;;;2.80;1.47;;;11.60;55.70;;;;;;5011409;28;20432;-51
2021/11/17 12:42:55;;;;;;;1.53;1.43;;;11.70;55.70;;;;;;5012591;28;20449;-49
2021/11/17 12:45:23;;;;;;;1.50;1.40;;;11.50;55.50;;;;;;5011946;28;20553;-49
2021/11/17 12:48:00;;;;;;;1.60;1.50;;;11.40;55.80;;;;;;5013385;28;20940;-50
2021/11/17 12:50:29;;;;;;;1.33;1.07;;;11.50;56.00;;;;;;5010528;28;20871;-51
2021/11/17 12:53:09;;;;;;;1.57;1.40;;;11.50;55.80;;;;;;5013885;28;20450;-48
2021/11/17 12:55:47;;;;;;;1.60;1.50;;;11.50;55.90;;;;;;5007302;28;20460;-47
2021/11/17 12:58:24;;;;;;;1.27;1.17;;;11.50;55.80;;;;;;5007730;28;20463;-49
2021/11/17 13:01:14;;;;;;;1.60;1.50;;;11.50;56.00;;;;;;5008276;28;20459;-47
2021/11/17 13:03:57;;;;;;;1.33;1.23;;;11.70;55.70;;;;;;5009103;28;20511;-47
2021/11/17 13:06:25;;;;;;;1.40;1.10;;;11.80;56.20;;;;;;5008450;28;20444;-49
2021/11/17 13:09:09;;;;;;;1.87;1.60;;;11.60;55.50;;;;;;5015430;28;21167;-50
2021/11/17 13:11:46;;;;;;;2.70;1.60;;;11.70;56.00;;;;;;5007547;28;20453;-51
2021/11/17 13:14:30;;;;;;;2.10;1.40;;;11.70;56.10;;;;;;5008652;28;20436;-47
2021/11/17 13:17:06;;;;;;;1.50;1.40;;;11.70;56.70;;;;;;5005969;28;20962;-51
2021/11/17 13:19:39;;;;;;;1.00;0.90;;;11.60;56.20;;;;;;5010783;28;20788;-51
2021/11/17 13:22:24;;;;;;;1.50;1.33;;;11.80;55.80;;;;;;5010905;28;20952;-48
2021/11/17 13:24:53;;;;;;;1.53;1.43;;;11.90;55.40;;;;;;4999588;28;20496;-51
2021/11/17 13:27:34;;;;;;;3.03;1.33;;;11.90;55.40;;;;;;5010099;28;20439;-47
2021/11/17 13:30:15;;;;;;;1.27;1.17;;;12.10;55.20;;;;;;5014054;28;20479;-48
2021/11/17 13:32:44;;;;;;;2.10;1.60;;;12.00;55.10;;;;;;5007790;28;20436;-48
2021/11/17 13:35:28;;;;;;;2.40;1.57;;;12.00;55.30;;;;;;5008928;28;20437;-50
2021/11/17 13:38:21;;;;;;;3.00;1.33;;;12.00;55.20;;;;;;5009665;28;20428;-50
2021/11/17 13:40:51;;;;;;;1.20;1.10;;;11.90;55.20;;;;;;5008098;28;20483;-51
2021/11/17 13:43:17;;;;;;;1.30;1.20;;;11.90;54.90;;;;;;5010039;28;20524;-46
2021/11/17 13:45:45;;;;;;;1.80;1.70;;;11.80;55.00;;;;;;5008353;28;20489;-48
2021/11/17 13:48:13;;;;;;;1.40;1.30;;;11.80;55.10;;;;;;5008717;28;20467;-48
2021/11/17 13:50:41;;;;;;;1.50;1.40;;;11.50;55.10;;;;;;5007029;28;20440;-47
2021/11/17 13:53:09;;;;;;;1.43;1.30;;;11.40;55.30;;;;;;5001744;28;20494;-48
2021/11/17 13:55:45;;;;;;;1.93;1.60;;;11.40;55.70;;;;;;5009438;28;20437;-53
2021/11/17 13:58:11;;;;;;;2.77;1.47;;;11.60;55.40;;;;;;5007269;28;20970;-47
2021/11/17 14:00:41;;;;;;;2.40;1.53;;;11.60;55.30;;;;;;5007146;28;20990;-47
2021/11/17 14:03:07;;;;;;;1.33;1.23;;;11.60;55.40;;;;;;4994272;28;20452;-48
2021/11/17 14:05:34;;;;;;;1.80;1.60;;;11.60;55.30;;;;;;5008886;28;20757;-48
2021/11/17 14:08:00;;;;;;;3.87;1.57;;;11.80;55.10;;;;;;5009828;28;20229;-47
2021/11/17 14:10:30;;;;;;;1.50;1.40;;;11.90;54.80;;;;;;5007868;28;21273;-49
2021/11/17 14:12:56;;;;;;;1.63;1.53;;;11.90;54.90;;;;;;5010337;28;20499;-48
2021/11/17 14:15:22;;;;;;;6.50;2.17;;;11.90;55.00;;;;;;5013996;28;20433;-49
2021/11/17 14:17:50;;;;;;;2.47;1.70;;;11.90;54.90;;;;;;5008811;28;20193;-48
2021/11/17 14:20:16;;;;;;;1.60;1.50;;;11.90;54.90;;;;;;5009959;28;20194;-47
2021/11/17 14:22:42;;;;;;;2.27;2.07;;;12.00;54.80;;;;;;4990942;28;20441;-48
2021/11/17 14:25:12;;;;;;;2.37;1.70;;;12.10;54.50;;;;;;5017957;28;20494;-48
2021/11/17 14:27:40;;;;;;;2.60;1.67;;;12.10;54.70;;;;;;5005682;28;20566;-48
2021/11/17 14:30:16;;;;;;;2.20;2.00;;;12.10;54.50;;;;;;5015817;28;20875;-49
2021/11/17 14:32:46;;;;;;;2.20;2.00;;;12.20;54.60;;;;;;5009248;28;20436;-47
2021/11/17 14:35:13;;;;;;;2.40;2.00;;;12.00;54.60;;;;;;5011073;28;20779;-49
2021/11/17 14:37:43;;;;;;;2.30;2.10;;;12.00;54.70;;;;;;5012085;28;20456;-49
2021/11/17 14:40:12;;;;;;;4.40;2.97;;;12.00;54.80;;;;;;5014699;28;20437;-47
2021/11/17 14:42:38;;;;;;;12.03;2.70;;;12.10;54.70;;;;;;5010691;28;20448;-48
2021/11/17 14:45:08;;;;;;;2.27;2.13;;;12.20;54.60;;;;;;5018104;28;20487;-47
2021/11/17 14:47:33;;;;;;;2.50;2.20;;;11.90;54.60;;;;;;5012968;28;20198;-48
2021/11/17 14:49:59;;;;;;;2.30;2.10;;;11.90;55.00;;;;;;5012748;28;20491;-48
2021/11/17 14:52:25;;;;;;;3.50;2.40;;;11.80;55.20;;;;;;5016048;28;21573;-51
2021/11/17 14:54:51;;;;;;;2.90;2.07;;;11.80;55.30;;;;;;5014541;28;20193;-51
2021/11/17 14:57:18;;;;;;;2.53;2.10;;;12.00;55.10;;;;;;5013274;28;20797;-47
2021/11/17 14:59:44;;;;;;;3.90;2.30;;;12.00;54.90;;;;;;5011761;28;20440;-48
2021/11/17 15:02:10;;;;;;;2.53;2.20;;;12.20;54.70;;;;;;5010134;28;20932;-46
2021/11/17 15:04:36;;;;;;;3.00;2.10;;;12.20;54.60;;;;;;5015198;28;20225;-47
2021/11/17 15:07:09;;;;;;;2.77;2.57;;;12.30;54.40;;;;;;5014480;28;20956;-47
2021/11/17 15:09:34;;;;;;;2.53;2.23;;;12.20;54.00;;;;;;5013602;28;20307;-48
2021/11/17 15:12:30;;;;;;;3.23;2.80;;;12.00;54.60;;;;;;5021110;28;20472;-46
2021/11/17 15:14:56;;;;;;;2.63;2.20;;;12.00;54.90;;;;;;5014024;28;20451;-49
2021/11/17 15:17:27;;;;;;;3.03;2.47;;;12.10;55.00;;;;;;5017769;28;20425;-49
2021/11/17 15:19:53;;;;;;;5.13;2.60;;;12.20;54.90;;;;;;5022814;28;20231;-48
2021/11/17 15:22:22;;;;;;;3.77;2.50;;;12.30;54.80;;;;;;5018236;28;20465;-47
2021/11/17 15:24:48;;;;;;;2.93;2.60;;;12.40;54.70;;;;;;5013446;28;20221;-49
2021/11/17 15:27:32;;;;;;;3.97;2.47;;;12.40;54.70;;;;;;5012656;28;20444;-47
2021/11/17 15:29:58;;;;;;;3.20;2.37;;;12.40;54.70;;;;;;5014078;28;20475;-47
2021/11/17 15:32:25;;;;;;;3.23;2.93;;;12.40;54.60;;;;;;5013218;28;20468;-48
2021/11/17 15:34:51;;;;;;;4.53;3.10;;;12.50;54.60;;;;;;5007872;28;20444;-47
2021/11/17 15:37:17;;;;;;;2.90;2.60;;;12.50;54.60;;;;;;5011381;28;20523;-51
2021/11/17 15:39:43;;;;;;;2.33;2.13;;;12.50;54.80;;;;;;5019511;28;20477;-49
2021/11/17 15:42:09;;;;;;;3.00;2.80;;;12.50;54.60;;;;;;5024486;28;20429;-48
2021/11/17 15:44:35;;;;;;;4.13;2.70;;;12.50;54.50;;;;;;5012026;28;20307;-49
2021/11/17 15:47:04;;;;;;;3.10;2.23;;;12.50;54.50;;;;;;5004083;28;20444;-48
2021/11/17 15:49:31;;;;;;;2.80;2.30;;;12.50;54.40;;;;;;5018021;28;20204;-47
2021/11/17 15:51:58;;;;;;;2.87;2.47;;;12.60;54.60;;;;;;5010692;28;20433;-46
2021/11/17 15:54:24;;;;;;;2.73;2.53;;;12.60;54.60;;;;;;5009758;28;20789;-47
2021/11/17 15:56:51;;;;;;;3.20;2.67;;;12.60;54.50;;;;;;5012468;28;20524;-50
2021/11/17 15:59:17;;;;;;;3.70;2.90;;;12.60;54.60;;;;;;5014737;28;20994;-51